createdAt,value
2023-02-11T00:01:10.594Z,81.7
2023-02-11T00:03:12.218Z,81.35
2023-02-11T00:05:13.907Z,81.52
2023-02-11T00:07:15.821Z,82
2023-02-11T00:09:17.166Z,82.08
2023-02-11T00:11:18.917Z,82.19
2023-02-11T00:13:20.416Z,81.63
2023-02-11T00:15:21.521Z,80.66
2023-02-11T00:17:23.402Z,80.61
2023-02-11T00:19:24.518Z,80.57
2023-02-11T00:21:25.710Z,80.68
2023-02-11T00:23:27.685Z,80.86
2023-02-11T00:25:29.088Z,80.49
2023-02-11T00:27:30.955Z,80.01
2023-02-11T00:29:32.072Z,80.37
2023-02-11T00:31:33.485Z,79.37
2023-02-11T00:33:34.650Z,79.38
2023-02-11T00:35:36.676Z,79.02
2023-02-11T00:37:38.382Z,78.72
2023-02-11T00:39:40.358Z,78.81
2023-02-11T00:41:42.092Z,78.81
2023-02-11T00:43:43.506Z,78.93
2023-02-11T00:45:45.550Z,79.52
2023-02-11T00:47:46.808Z,79.43
2023-02-11T00:49:48.014Z,79.71
2023-02-11T00:51:49.232Z,79.6
2023-02-11T00:53:51.046Z,79.95
2023-02-11T00:55:52.213Z,80.48
2023-02-11T00:57:54.040Z,80.77
2023-02-11T00:59:55.641Z,80.68
2023-02-11T01:01:57.614Z,80.54
2023-02-11T01:06:01.197Z,79.16
2023-02-11T01:08:02.621Z,79.82
2023-02-11T01:12:05.768Z,79.41
2023-02-11T01:14:07.556Z,78.73
2023-02-11T01:16:08.866Z,78.14
2023-02-11T01:18:10.772Z,78.4
2023-02-11T01:20:11.988Z,78.78
2023-02-11T01:22:13.724Z,79.13
2023-02-11T01:24:15.198Z,79.15
2023-02-11T01:26:16.503Z,78.95
2023-02-11T01:28:18.459Z,79.47
2023-02-11T01:30:20.455Z,78.99
2023-02-11T01:32:21.538Z,79.07
2023-02-11T01:34:22.945Z,78.79
2023-02-11T01:36:24.707Z,78.91
2023-02-11T01:38:26.491Z,78.93
2023-02-11T01:40:27.921Z,79.24
2023-02-11T01:42:29.261Z,79.15
2023-02-11T01:44:31.230Z,79.39
2023-02-11T01:46:32.543Z,79.35
2023-02-11T01:48:33.547Z,79.4
2023-02-11T01:50:34.867Z,79.28
2023-02-11T01:54:38.380Z,78.68
2023-02-11T01:56:39.487Z,78.51
2023-02-11T01:58:41.109Z,78.45
2023-02-11T02:00:42.641Z,78.5
2023-02-11T02:04:46.003Z,78.81
2023-02-11T02:06:47.207Z,78.65
2023-02-11T02:08:48.426Z,78.63
2023-02-11T02:10:49.733Z,78.66
2023-02-11T02:12:51.182Z,78.8
2023-02-11T02:14:52.950Z,79.14
2023-02-11T02:16:54.487Z,79.35
2023-02-11T02:18:56.395Z,79.56
2023-02-11T02:20:57.954Z,79.91
2023-02-11T02:22:59.422Z,79.51
2023-02-11T02:25:01.270Z,79.56
2023-02-11T02:27:02.880Z,79.39
2023-02-11T02:29:04.057Z,79.24
2023-02-11T02:31:05.857Z,79.36
2023-02-11T02:33:21.547Z,79.28
2023-02-11T02:35:08.927Z,79.42
2023-02-11T02:37:10.514Z,79.3
2023-02-11T02:39:11.611Z,79.34
2023-02-11T02:41:13.281Z,79.8
2023-02-11T02:43:15.261Z,79.32
2023-02-11T02:45:17.210Z,79.29
2023-02-11T02:47:18.412Z,79.59
2023-02-11T02:49:20.073Z,79.56
2023-02-11T02:51:21.614Z,79.65
2023-02-11T02:53:22.866Z,79.67
2023-02-11T02:55:24.749Z,79.57
2023-02-11T02:57:25.840Z,79.7
2023-02-11T02:59:27.684Z,79.96
2023-02-11T03:01:28.860Z,79.75
2023-02-11T03:03:30.351Z,79.85
2023-02-11T03:05:31.960Z,79.85
2023-02-11T03:07:33.960Z,79.57
2023-02-11T03:09:35.569Z,79.49
2023-02-11T03:11:37.345Z,79.58
2023-02-11T03:13:38.779Z,79.49
2023-02-11T03:15:39.885Z,79.06
2023-02-11T03:17:41.271Z,79.22
2023-02-11T03:19:43.186Z,79.25
2023-02-11T03:21:45.106Z,78.99
2023-02-11T03:23:46.618Z,79.11
2023-02-11T03:25:48.632Z,78.98
2023-02-11T03:29:51.548Z,79.03
2023-02-11T03:31:52.875Z,79.32
2023-02-11T03:33:54.432Z,79.5
2023-02-11T03:35:56.135Z,79.38
2023-02-11T03:37:58.069Z,79.11
2023-02-11T03:39:59.213Z,79
2023-02-11T03:42:00.733Z,79.07
2023-02-11T03:44:01.956Z,79.22
2023-02-11T03:46:03.448Z,79.49
2023-02-11T03:48:04.563Z,79.74
2023-02-11T03:50:05.657Z,79.22
2023-02-11T03:52:07.201Z,79.46
2023-02-11T03:54:08.561Z,79.52
2023-02-11T03:56:10.368Z,79.61
2023-02-11T03:58:11.828Z,79.84
2023-02-11T04:02:14.731Z,79.98
2023-02-11T04:04:15.952Z,80.35
2023-02-11T04:06:17.250Z,80.62
2023-02-11T04:08:18.352Z,80.42
2023-02-11T04:12:21.337Z,79.75
2023-02-11T04:14:23.089Z,79.98
2023-02-11T04:18:26.608Z,79.74
2023-02-11T04:20:27.944Z,79.56
2023-02-11T04:22:29.679Z,79.58
2023-02-11T04:24:31.478Z,79.91
2023-02-11T04:26:32.919Z,80.13
2023-02-11T04:28:34.834Z,80.16
2023-02-11T04:30:36.362Z,80.05
2023-02-11T04:32:38.193Z,80.07
2023-02-11T04:34:39.982Z,80.32
2023-02-11T04:36:41.671Z,80.38
2023-02-11T04:38:42.855Z,80.4
2023-02-11T04:40:44.670Z,80.26
2023-02-11T04:42:46.052Z,80.37
2023-02-11T04:44:47.798Z,80.54
2023-02-11T04:46:49.522Z,80.84
2023-02-11T04:48:50.872Z,80.99
2023-02-11T04:50:52.947Z,81.15
2023-02-11T04:54:55.876Z,81.14
2023-02-11T04:56:57.528Z,80.98
2023-02-11T04:58:58.790Z,80.82
2023-02-11T05:01:00.323Z,80.51
2023-02-11T05:03:01.419Z,80.52
2023-02-11T05:05:03.219Z,80.49
2023-02-11T05:07:04.442Z,80.53
2023-02-11T05:11:07.103Z,80.68
2023-02-11T05:13:08.677Z,80.71
2023-02-11T05:15:10.289Z,80.32
2023-02-11T05:17:11.639Z,80.25
2023-02-11T05:19:13.612Z,80.4
2023-02-11T05:21:14.736Z,80.57
2023-02-11T05:23:16.034Z,80.62
2023-02-11T05:25:17.843Z,80.56
2023-02-11T05:27:19.697Z,80.67
2023-02-11T05:29:21.677Z,80.53
2023-02-11T05:31:23.485Z,80.39
2023-02-11T05:33:24.684Z,80.65
2023-02-11T05:35:26.011Z,80.72
2023-02-11T05:37:27.509Z,80.86
2023-02-11T05:39:28.927Z,80.56
2023-02-11T05:43:32.413Z,80.37
2023-02-11T05:45:33.667Z,80.44
2023-02-11T05:47:35.636Z,80.51
2023-02-11T05:49:37.477Z,79.81
2023-02-11T05:53:40.006Z,80.01
2023-02-11T05:55:41.040Z,79.56
2023-02-11T05:57:42.214Z,79.19
2023-02-11T05:59:43.563Z,79.68
2023-02-11T06:01:45.197Z,79.64
2023-02-11T06:03:46.490Z,79.48
2023-02-11T06:05:48.333Z,79.43
2023-02-11T06:08:33.680Z,79.37
2023-02-11T06:10:35.456Z,79.63
2023-02-11T06:12:37.368Z,79.55
2023-02-11T06:14:38.543Z,79.69
2023-02-11T06:16:40.490Z,79.58
2023-02-11T06:18:41.883Z,79.66
2023-02-11T06:20:43.675Z,79.65
2023-02-11T06:22:45.265Z,79.91
2023-02-11T06:25:00.650Z,80.05
2023-02-11T06:26:48.533Z,79.98
2023-02-11T06:28:50.389Z,79.85
2023-02-11T06:30:52.144Z,79.49
2023-02-11T06:32:53.764Z,79.53
2023-02-11T06:34:55.269Z,79.53
2023-02-11T06:36:56.576Z,79.74
2023-02-11T06:38:58.227Z,79.82
2023-02-11T06:40:59.515Z,79.93
2023-02-11T06:43:00.571Z,80.1
2023-02-11T06:45:02.130Z,79.79
2023-02-11T06:47:03.663Z,79.77
2023-02-11T06:49:05.175Z,79.74
2023-02-11T06:51:06.343Z,79.84
2023-02-11T06:53:07.978Z,79.81
2023-02-11T06:55:09.391Z,79.92
2023-02-11T06:57:11.330Z,79.95
2023-02-11T06:59:13.231Z,79.81
2023-02-11T07:01:14.977Z,79.7
2023-02-11T07:03:16.614Z,79.24
2023-02-11T07:05:18.390Z,79.46
2023-02-11T07:07:19.416Z,79.56
2023-02-11T07:09:20.777Z,79.44
2023-02-11T07:13:24.166Z,79.82
2023-02-11T07:15:25.488Z,79.94
2023-02-11T07:17:27.101Z,79.95
2023-02-11T07:19:28.874Z,80.07
2023-02-11T07:21:30.220Z,80.03
2023-02-11T07:23:31.711Z,79.92
2023-02-11T07:25:33.480Z,79.66
2023-02-11T07:27:35.083Z,79.65
2023-02-11T07:29:36.683Z,79.32
2023-02-11T07:31:38.402Z,79.36
2023-02-11T07:33:39.788Z,79.13
2023-02-11T07:35:42.749Z,79.11
2023-02-11T07:37:42.854Z,78.71
2023-02-11T07:39:43.998Z,78.7
2023-02-11T07:41:45.774Z,78.65
2023-02-11T07:43:47.600Z,78.61
2023-02-11T07:45:49.926Z,78.59
2023-02-11T07:47:51.280Z,78.75
2023-02-11T07:49:55.400Z,78.64
2023-02-11T07:51:54.287Z,78.64
2023-02-11T07:55:56.988Z,78.62
2023-02-11T07:57:58.958Z,78.55
2023-02-11T08:00:00.369Z,78.56
2023-02-11T08:02:01.871Z,78.54
2023-02-11T08:04:03.017Z,78.69
2023-02-11T08:06:04.223Z,78.78
2023-02-11T08:08:05.794Z,78.71
2023-02-11T08:10:07.070Z,78.64
2023-02-11T08:12:08.242Z,78.63
2023-02-11T08:14:09.354Z,78.82
2023-02-11T08:16:11.094Z,78.93
2023-02-11T08:18:12.345Z,78.42
2023-02-11T08:20:14.105Z,78.56
2023-02-11T08:22:15.759Z,78.64
2023-02-11T08:24:17.591Z,78.5
2023-02-11T08:28:20.741Z,78.52
2023-02-11T08:30:22.348Z,78.12
2023-02-11T08:32:23.806Z,78.12
2023-02-11T08:34:25.210Z,78.23
2023-02-11T08:38:28.730Z,78.24
2023-02-11T08:40:30.597Z,78.09
2023-02-11T08:42:32.049Z,78.15
2023-02-11T08:44:33.912Z,78.14
2023-02-11T08:46:35.398Z,78.42
2023-02-11T08:48:37.009Z,78.32
2023-02-11T08:50:38.046Z,78.41
2023-02-11T08:52:39.848Z,78.16
2023-02-11T08:54:42.231Z,77.73
2023-02-11T08:56:43.392Z,77.54
2023-02-11T08:58:44.399Z,77.19
2023-02-11T09:00:45.659Z,76.62
2023-02-11T09:02:47.585Z,76.5
2023-02-11T09:04:48.775Z,76.39
2023-02-11T09:06:50.253Z,76.61
2023-02-11T09:08:51.467Z,76.76
2023-02-11T09:10:53.641Z,76.58
2023-02-11T09:12:54.966Z,76.27
2023-02-11T09:14:56.736Z,75.79
2023-02-11T09:16:58.574Z,75.77
2023-02-11T09:21:01.177Z,75.25
2023-02-11T09:23:02.790Z,74.52
2023-02-11T09:25:04.837Z,74.51
2023-02-11T09:27:06.545Z,74.34
2023-02-11T09:29:07.708Z,75.06
2023-02-11T09:31:09.236Z,74.57
2023-02-11T09:33:10.544Z,74.59
2023-02-11T09:35:11.952Z,74.5
2023-02-11T09:37:13.250Z,73.98
2023-02-11T09:39:14.292Z,74.54
2023-02-11T09:41:16.208Z,74.07
2023-02-11T09:43:17.740Z,74.55
2023-02-11T09:45:19.318Z,73.34
2023-02-11T09:47:20.233Z,73.27
2023-02-11T09:49:21.948Z,72.98
2023-02-11T09:51:23.071Z,73.54
2023-02-11T09:53:24.493Z,73.54
2023-02-11T09:55:25.801Z,73.07
2023-02-11T09:57:28.794Z,73.05
2023-02-11T09:59:28.721Z,73.45
2023-02-11T10:01:29.719Z,72.44
2023-02-11T10:03:31.232Z,72.22
2023-02-11T10:05:33.078Z,72.55
2023-02-11T10:09:35.900Z,72.43
2023-02-11T10:11:37.523Z,72.88
2023-02-11T10:13:41.498Z,72.96
2023-02-11T10:15:40.357Z,73.54
2023-02-11T10:19:43.646Z,72.39
2023-02-11T10:21:44.716Z,72.56
2023-02-11T10:23:46.532Z,72.93
2023-02-11T10:25:47.642Z,73.05
2023-02-11T10:27:48.988Z,72.43
2023-02-11T10:29:50.347Z,72.97
2023-02-11T10:31:53.178Z,72.16
2023-02-11T10:33:52.249Z,72.24
2023-02-11T10:35:54.042Z,73.06
2023-02-11T10:37:55.830Z,73.13
2023-02-11T10:39:57.050Z,73.57
2023-02-11T10:41:58.745Z,73.39
2023-02-11T10:43:59.863Z,73.95
2023-02-11T10:46:01.406Z,73.44
2023-02-11T10:48:02.464Z,73.56
2023-02-11T10:50:04.190Z,74.19
2023-02-11T10:52:05.266Z,73.43
2023-02-11T10:54:06.655Z,73.81
2023-02-11T10:56:16.154Z,73.53
2023-02-11T10:58:09.600Z,72.76
2023-02-11T11:02:12.767Z,72.9
2023-02-11T11:04:13.949Z,73.02
2023-02-11T11:06:17.169Z,73.46
2023-02-11T11:08:18.286Z,73.52
2023-02-11T11:10:19.356Z,73.15
2023-02-11T11:12:20.407Z,73.63
2023-02-11T11:14:21.360Z,73.34
2023-02-11T11:16:23.150Z,73.85
2023-02-11T11:18:23.924Z,73
2023-02-11T11:20:25.629Z,73.37
2023-02-11T11:22:27.281Z,73.25
2023-02-11T11:24:28.181Z,73.38
2023-02-11T11:26:29.147Z,73.07
2023-02-11T11:28:30.325Z,73.38
2023-02-11T11:30:31.602Z,73.77
2023-02-11T11:32:32.850Z,73.53
2023-02-11T11:34:33.904Z,72.66
2023-02-11T11:36:35.086Z,72.23
2023-02-11T11:38:36.872Z,73.08
2023-02-11T11:40:38.128Z,73.68
2023-02-11T11:44:40.839Z,72.62
2023-02-11T11:46:41.775Z,73.12
2023-02-11T11:50:45.065Z,72.28
2023-02-11T11:52:46.433Z,72.59
2023-02-11T11:54:47.777Z,71.95
2023-02-11T11:56:49.386Z,71.42
2023-02-11T12:00:52.325Z,70.98
2023-02-11T12:02:53.064Z,70.85
2023-02-11T12:04:54.228Z,71.33
2023-02-11T12:06:55.777Z,71.12
2023-02-11T12:08:57.293Z,71.36
2023-02-11T12:10:58.344Z,70.68
2023-02-11T12:12:59.329Z,70.9
2023-02-11T12:15:01.235Z,71.52
2023-02-11T12:17:02.506Z,71.76
2023-02-11T12:19:03.630Z,71.57
2023-02-11T12:21:05.136Z,72.09
2023-02-11T12:23:06.592Z,71.18
2023-02-11T12:25:08.244Z,71.99
2023-02-11T12:27:09.831Z,72.12
2023-02-11T12:29:11.496Z,72.13
2023-02-11T12:31:13.313Z,72.21
2023-02-11T12:33:14.507Z,71.78
2023-02-11T12:35:15.743Z,71.39
2023-02-11T12:37:17.604Z,71.22
2023-02-11T12:39:18.701Z,71.72
2023-02-11T12:43:21.727Z,71.73
2023-02-11T12:45:23.467Z,71.45
2023-02-11T12:47:25.056Z,71.61
2023-02-11T12:49:26.575Z,71.22
2023-02-11T12:51:28.432Z,72.18
2023-02-11T12:52:12.268Z,72.21
2023-02-11T12:54:13.443Z,71.85
2023-02-11T12:56:14.424Z,72.18
2023-02-11T12:58:16.159Z,72.46
2023-02-11T13:00:17.379Z,72.85
2023-02-11T13:02:18.490Z,72.77
2023-02-11T13:04:20.216Z,72.71
2023-02-11T13:06:21.992Z,72.34
2023-02-11T13:08:23.173Z,72.71
2023-02-11T13:10:24.410Z,72.19
2023-02-11T13:12:25.544Z,71.79
2023-02-11T13:14:27.282Z,71.95
2023-02-11T13:16:28.370Z,71.89
2023-02-11T13:20:31.446Z,71.7
2023-02-11T13:22:32.829Z,71.77
2023-02-11T13:24:33.815Z,71.43
2023-02-11T13:26:34.833Z,71.73
2023-02-11T13:28:36.206Z,71.27
2023-02-11T13:30:37.547Z,71.61
2023-02-11T13:32:39.133Z,71.72
2023-02-11T13:34:41.024Z,71.45
2023-02-11T13:36:42.021Z,71.3
2023-02-11T13:38:43.753Z,71.42
2023-02-11T13:40:45.317Z,71.1
2023-02-11T13:42:46.594Z,71.33
2023-02-11T13:44:48.188Z,71.44
2023-02-11T13:46:49.535Z,71.02
2023-02-11T13:48:50.987Z,71.6
2023-02-11T13:52:54.098Z,71.56
2023-02-11T13:54:55.084Z,71.06
2023-02-11T13:56:56.781Z,71.3
2023-02-11T13:59:00.819Z,70.94
2023-02-11T14:03:01.496Z,71.66
2023-02-11T14:05:02.754Z,71.97
2023-02-11T14:09:05.703Z,72.41
2023-02-11T14:11:06.850Z,70.99
2023-02-11T14:13:08.299Z,71.61
2023-02-11T14:15:09.294Z,71.99
2023-02-11T14:19:12.104Z,71.2
2023-02-11T14:21:14.002Z,71.35
2023-02-11T14:23:15.505Z,71.35
2023-02-11T14:25:16.676Z,71.17
2023-02-11T14:27:18.178Z,71.01
2023-02-11T14:29:19.588Z,71.32
2023-02-11T14:31:21.026Z,71.68
2023-02-11T14:33:22.555Z,71.38
2023-02-11T14:35:24.148Z,71.46
2023-02-11T14:37:25.161Z,71.53
2023-02-11T14:39:26.173Z,71.48
2023-02-11T14:41:27.140Z,71.93
2023-02-11T14:43:29.604Z,71.97
2023-02-11T14:45:29.606Z,71.82
2023-02-11T14:47:30.616Z,72.08
2023-02-11T14:49:32.316Z,72.18
2023-02-11T14:51:33.983Z,71.88
2023-02-11T14:53:35.029Z,71.79
2023-02-11T14:55:36.363Z,72.03
2023-02-11T14:57:37.528Z,71.77
2023-02-11T15:01:39.755Z,71.99
2023-02-11T15:03:41.260Z,71.86
2023-02-11T15:05:42.313Z,71.96
2023-02-11T15:07:43.670Z,72.1
2023-02-11T15:09:45.452Z,72.14
2023-02-11T15:11:46.604Z,71.99
2023-02-11T15:13:47.758Z,71.87
2023-02-11T15:15:49.393Z,71.87
2023-02-11T15:17:50.796Z,72.28
2023-02-11T15:19:52.007Z,72.04
2023-02-11T15:21:53.697Z,72.14
2023-02-11T15:23:55.573Z,72.44
2023-02-11T15:25:57.020Z,72.39
2023-02-11T15:27:58.689Z,72.59
2023-02-11T15:30:00.234Z,72.67
2023-02-11T15:34:03.048Z,72.92
2023-02-11T15:36:04.795Z,73.08
2023-02-11T15:38:06.139Z,73
2023-02-11T15:40:07.370Z,73.39
2023-02-11T15:44:10.156Z,73.21
2023-02-11T15:46:12.045Z,73.38
2023-02-11T15:48:13.651Z,73.45
2023-02-11T15:50:14.891Z,73.48
2023-02-11T15:52:16.061Z,73.51
2023-02-11T15:54:17.881Z,73.69
2023-02-11T15:56:19.505Z,73.67
2023-02-11T15:58:20.938Z,73.98
2023-02-11T16:00:22.039Z,73.97
2023-02-11T16:02:23.126Z,74.01
2023-02-11T16:04:24.888Z,74.13
2023-02-11T16:06:26.365Z,74.19
2023-02-11T16:08:27.753Z,73.7
2023-02-11T16:10:29.196Z,73.9
2023-02-11T16:12:31.059Z,73.67
2023-02-11T16:14:32.581Z,73.76
2023-02-11T16:16:34.094Z,73.74
2023-02-11T16:18:39.200Z,74.04
2023-02-11T16:20:37.704Z,74.09
2023-02-11T16:22:38.948Z,74.26
2023-02-11T16:24:40.109Z,74.69
2023-02-11T16:26:41.691Z,74.82
2023-02-11T16:28:43.182Z,75.17
2023-02-11T16:32:46.078Z,75.88
2023-02-11T16:34:47.730Z,76.04
2023-02-11T16:36:48.853Z,76.93
2023-02-11T16:38:50.407Z,76.89
2023-02-11T16:42:52.966Z,77.47
2023-02-11T16:44:54.516Z,77.56
2023-02-11T16:46:55.797Z,77.65
2023-02-11T16:48:57.210Z,77.56
2023-02-11T16:50:58.841Z,77.53
2023-02-11T16:53:00.399Z,77.55
2023-02-11T16:55:01.591Z,77.49
2023-02-11T16:57:02.999Z,77.61
2023-02-11T16:59:04.250Z,77.45
2023-02-11T17:01:05.932Z,76.79
2023-02-11T17:03:07.361Z,76.88
2023-02-11T17:05:09.245Z,76.99
2023-02-11T17:07:10.836Z,77.07
2023-02-11T17:09:12.711Z,77.42
2023-02-11T17:11:14.331Z,77.33
2023-02-11T17:13:15.614Z,77.49
2023-02-11T17:15:16.833Z,77.7
2023-02-11T17:17:18.150Z,77.93
2023-02-11T17:19:19.976Z,78.14
2023-02-11T17:21:21.674Z,78.41
2023-02-11T17:25:24.630Z,78.4
2023-02-11T17:27:26.260Z,78.35
2023-02-11T17:29:27.485Z,78.17
2023-02-11T17:31:29.083Z,78.22
2023-02-11T17:33:30.811Z,78.41
2023-02-11T17:35:32.583Z,78.41
2023-02-11T17:37:33.806Z,78.5
2023-02-11T17:39:34.911Z,78.6
2023-02-11T17:41:36.676Z,78.69
2023-02-11T17:43:38.144Z,78.75
2023-02-11T17:47:40.754Z,78.9
2023-02-11T17:49:42.431Z,79.03
2023-02-11T17:51:43.648Z,79.04
2023-02-11T17:53:45.417Z,79.05
2023-02-11T17:57:49.195Z,79.81
2023-02-11T17:59:50.457Z,80.19
2023-02-11T18:01:52.122Z,80.24
2023-02-11T18:03:53.188Z,80.31
2023-02-11T18:05:54.257Z,80.25
2023-02-11T18:07:55.937Z,80.34
2023-02-11T18:09:57.420Z,80.45
2023-02-11T18:11:58.604Z,80.6
2023-02-11T18:13:59.598Z,80.77
2023-02-11T18:16:00.725Z,80.86
2023-02-11T18:18:02.389Z,81.04
2023-02-11T18:20:03.834Z,80.96
2023-02-11T18:22:05.620Z,81.19
2023-02-11T18:24:07.208Z,81.2
2023-02-11T18:26:08.112Z,81.56
2023-02-11T18:28:09.892Z,81.52
2023-02-11T18:30:11.812Z,81.69
2023-02-11T18:32:13.088Z,82.12
2023-02-11T18:34:14.664Z,82.21
2023-02-11T18:36:15.940Z,82.28
2023-02-11T18:40:19.401Z,82.63
2023-02-11T18:42:21.183Z,82.75
2023-02-11T18:44:22.159Z,82.92
2023-02-11T18:46:24.017Z,83.2
2023-02-11T18:48:25.649Z,83.3
2023-02-11T18:50:26.862Z,83.39
2023-02-11T18:52:28.782Z,83.66
2023-02-11T18:54:30.599Z,83.71
2023-02-11T18:56:31.884Z,83.88
2023-02-11T18:58:32.882Z,83.93
2023-02-11T19:00:34.437Z,83.89
2023-02-11T19:02:36.119Z,83.91
2023-02-11T19:04:37.349Z,84.14
2023-02-11T19:06:39.207Z,84.21
2023-02-11T19:08:40.865Z,84.19
2023-02-11T19:12:43.342Z,84.63
2023-02-11T19:14:44.762Z,84.57
2023-02-11T19:16:45.875Z,84.76
2023-02-11T19:18:47.443Z,84.86
2023-02-11T19:22:51.100Z,84.86
2023-02-11T19:24:53.036Z,84.91
2023-02-11T19:26:54.255Z,84.99
2023-02-11T19:28:55.428Z,84.98
2023-02-11T19:30:57.504Z,85.04
2023-02-11T19:32:59.191Z,85.12
2023-02-11T19:35:00.860Z,85.4
2023-02-11T19:37:02.587Z,85.83
2023-02-11T19:37:46.458Z,85.77
2023-02-11T19:39:47.961Z,85.75
2023-02-11T19:41:49.474Z,85.88
2023-02-11T19:43:50.718Z,86.15
2023-02-11T19:45:52.155Z,86.56
2023-02-11T19:49:54.389Z,86.58
2023-02-11T19:51:55.425Z,86.89
2023-02-11T19:53:56.876Z,87.16
2023-02-11T19:55:58.624Z,87.49
2023-02-11T19:58:00.455Z,87.66
2023-02-11T20:00:02.157Z,87.51
2023-02-11T20:02:03.254Z,87.38
2023-02-11T20:04:04.773Z,87.47
2023-02-11T20:06:05.880Z,87.76
2023-02-11T20:08:07.732Z,87.82
2023-02-11T20:10:08.900Z,88.34
2023-02-11T20:12:09.995Z,88.58
2023-02-11T20:16:13.284Z,88.52
2023-02-11T20:18:14.704Z,88.56
2023-02-11T20:20:15.817Z,88.66
2023-02-11T20:22:17.677Z,88.57
2023-02-11T20:24:19.056Z,88.65
2023-02-11T20:26:20.291Z,88.62
2023-02-11T20:28:21.995Z,88.23
2023-02-11T20:30:23.883Z,88
2023-02-11T20:32:25.194Z,87.92
2023-02-11T20:34:26.519Z,87.73
2023-02-11T20:36:28.003Z,87.68
2023-02-11T20:38:29.960Z,87.75
2023-02-11T20:40:31.415Z,88.01
2023-02-11T20:42:33.257Z,88.15
2023-02-11T20:44:34.926Z,88.06
2023-02-11T20:48:37.624Z,88.31
2023-02-11T20:50:39.356Z,88.29
2023-02-11T20:52:41.134Z,88.38
2023-02-11T20:54:42.904Z,88.51
2023-02-11T20:58:46.234Z,88.69
2023-02-11T21:00:48.055Z,88.68
2023-02-11T21:02:49.637Z,88.66
2023-02-11T21:04:50.820Z,88.59
2023-02-11T21:06:52.285Z,88.89
2023-02-11T21:08:53.660Z,88.99
2023-02-11T21:10:55.268Z,89.01
2023-02-11T21:12:56.935Z,89.06
2023-02-11T21:14:58.690Z,89.07
2023-02-11T21:17:00.085Z,89.01
2023-02-11T21:19:00.705Z,89.07
2023-02-11T21:21:02.044Z,89.12
2023-02-11T21:23:03.663Z,89.13
2023-02-11T21:25:05.242Z,89.17
2023-02-11T21:27:06.658Z,89.36
2023-02-11T21:29:08.433Z,89.1
2023-02-11T21:31:09.645Z,88.95
2023-02-11T21:33:11.115Z,88.98
2023-02-11T21:35:12.259Z,89.21
2023-02-11T21:37:14.085Z,89.33
2023-02-11T21:41:16.927Z,89.34
2023-02-11T21:43:18.812Z,89.05
2023-02-11T21:45:20.023Z,89.05
2023-02-11T21:47:21.162Z,89.39
2023-02-11T21:49:22.443Z,89.48
2023-02-11T21:51:23.922Z,89.48
2023-02-11T21:53:24.935Z,89.48
2023-02-11T21:55:26.398Z,89.46
2023-02-11T21:57:27.582Z,89.53
2023-02-11T21:59:29.010Z,89.34
2023-02-11T22:01:30.350Z,89.19
2023-02-11T22:03:31.889Z,88.99
2023-02-11T22:05:33.364Z,88.93
2023-02-11T22:07:34.570Z,88.85
2023-02-11T22:09:36.444Z,88.89
2023-02-11T22:13:40.175Z,88.93
2023-02-11T22:15:41.386Z,89.15
2023-02-11T22:17:42.819Z,89.34
2023-02-11T22:19:44.368Z,89.32
2023-02-11T22:23:47.330Z,89.45
2023-02-11T22:25:48.720Z,89.91
2023-02-11T22:27:49.966Z,90.28
2023-02-11T22:29:51.327Z,90.64
2023-02-11T22:31:52.794Z,90.67
2023-02-11T22:33:54.625Z,90.65
2023-02-11T22:35:56.422Z,90.64
2023-02-11T22:37:57.654Z,90.64
2023-02-11T22:39:58.773Z,90.66
2023-02-11T22:42:00.447Z,90.71
2023-02-11T22:44:01.625Z,90.51
2023-02-11T22:46:03.264Z,90.47
2023-02-11T22:48:04.623Z,90.6
2023-02-11T22:50:06.541Z,90.69
2023-02-11T22:52:08.452Z,90.69
2023-02-11T22:54:09.536Z,90.52
2023-02-11T22:56:14.019Z,90.98
2023-02-11T22:58:12.506Z,91.11
2023-02-11T23:00:13.593Z,90.94
2023-02-11T23:02:15.699Z,90.82
2023-02-11T23:06:18.954Z,90.69
2023-02-11T23:08:20.624Z,90.9
2023-02-11T23:10:22.475Z,90.94
2023-02-11T23:12:24.397Z,90.93
2023-02-11T23:14:25.405Z,91.09
2023-02-11T23:16:26.577Z,90.78
2023-02-11T23:18:27.721Z,90.71
2023-02-11T23:20:28.817Z,90.56
2023-02-11T23:22:30.067Z,90.48
2023-02-11T23:24:31.190Z,90.34
2023-02-11T23:26:32.614Z,90.26
2023-02-11T23:28:34.568Z,90.24
2023-02-11T23:30:35.678Z,90.19
2023-02-11T23:32:37.171Z,90.22
2023-02-11T23:34:38.507Z,90.37
2023-02-11T23:36:40.260Z,90.45
2023-02-11T23:38:41.722Z,90.52
2023-02-11T23:40:43.354Z,90.56
2023-02-11T23:42:44.941Z,90.58
2023-02-11T23:44:46.722Z,90.61
2023-02-11T23:46:47.835Z,90.71
2023-02-11T23:48:49.396Z,90.96
2023-02-11T23:50:51.085Z,91.09
2023-02-11T23:54:54.149Z,91.16
2023-02-11T23:56:55.633Z,91.18
2023-02-11T23:58:57.263Z,91.24
